createdAt,value
2023-03-29T00:00:00.797Z,100573.29
2023-03-29T00:02:31.727Z,100564.98
2023-03-29T00:05:03.769Z,100567.61
2023-03-29T00:07:33.556Z,100558.18
2023-03-29T00:10:02.471Z,100567.64
2023-03-29T00:12:30.858Z,100563.40
2023-03-29T00:14:58.746Z,100561.60
2023-03-29T00:17:26.588Z,100566.36
2023-03-29T00:19:54.746Z,100567.61
2023-03-29T00:22:22.724Z,100563.13
2023-03-29T00:24:53.670Z,100569.07
2023-03-29T00:27:22.012Z,100561.45
2023-03-29T00:29:49.901Z,100559.40
2023-03-29T00:32:17.631Z,100561.55
2023-03-29T00:34:45.865Z,100561.07
2023-03-29T00:37:14.836Z,100562.35
2023-03-29T00:39:43.946Z,100564.52
2023-03-29T00:42:12.958Z,100560.50
2023-03-29T00:44:56.870Z,100566.95
2023-03-29T00:47:24.846Z,100560.15
2023-03-29T00:49:53.084Z,100551.66
2023-03-29T00:52:21.745Z,100548.42
2023-03-29T00:54:53.898Z,100544.52
2023-03-29T00:57:22.756Z,100545.36
2023-03-29T00:59:51.817Z,100542.70
2023-03-29T01:02:22.596Z,100543.64
2023-03-29T01:04:57.881Z,100542.06
2023-03-29T01:07:28.294Z,100543.44
2023-03-29T01:10:04.337Z,100537.39
2023-03-29T01:12:35.919Z,100538.71
2023-03-29T01:15:06.366Z,100541.13
2023-03-29T01:17:34.096Z,100539.77
2023-03-29T01:20:10.587Z,100538.17
2023-03-29T01:22:47.255Z,100533.61
2023-03-29T01:25:31.368Z,100533.65
2023-03-29T01:28:15.128Z,100535.27
2023-03-29T01:30:51.940Z,100530.70
2023-03-29T01:33:30.017Z,100530.52
2023-03-29T01:36:03.388Z,100532.10
2023-03-29T01:38:35.886Z,100527.30
2023-03-29T01:41:04.120Z,100531.93
2023-03-29T01:43:38.301Z,100525.14
2023-03-29T01:46:09.254Z,100520.54
2023-03-29T01:48:47.633Z,100522.08
2023-03-29T01:51:22.587Z,100522.60
2023-03-29T01:53:58.984Z,100522.83
2023-03-29T01:56:28.644Z,100517.70
2023-03-29T01:59:02.233Z,100520.35
2023-03-29T02:01:34.381Z,100524.15
2023-03-29T02:04:04.110Z,100525.86
2023-03-29T02:06:34.975Z,100523.73
2023-03-29T02:09:04.811Z,100529.84
2023-03-29T02:11:33.479Z,100528.15
2023-03-29T02:14:03.338Z,100521.70
2023-03-29T02:16:34.959Z,100525.98
2023-03-29T02:19:02.913Z,100525.52
2023-03-29T02:21:34.168Z,100527.64
2023-03-29T02:24:06.484Z,100524.45
2023-03-29T02:26:34.519Z,100526.42
2023-03-29T02:29:02.289Z,100525.20
2023-03-29T02:31:37.791Z,100524.38
2023-03-29T02:34:21.874Z,100523.69
2023-03-29T02:36:58.976Z,100524.74
2023-03-29T02:39:28.901Z,100520.15
2023-03-29T02:41:57.068Z,100516.62
2023-03-29T02:44:26.954Z,100522.31
2023-03-29T02:47:00.400Z,100521.49
2023-03-29T02:49:28.529Z,100521.98
2023-03-29T02:51:59.177Z,100519.66
2023-03-29T02:54:31.625Z,100522.14
2023-03-29T02:57:03.482Z,100521.66
2023-03-29T02:59:31.573Z,100522.95
2023-03-29T03:01:59.878Z,100529.30
2023-03-29T03:04:29.475Z,100529.52
2023-03-29T03:06:57.442Z,100530.33
2023-03-29T03:09:25.161Z,100530.61
2023-03-29T03:11:53.665Z,100528.59
2023-03-29T03:14:22.832Z,100533.46
2023-03-29T03:16:52.852Z,100537.73
2023-03-29T03:19:21.292Z,100534.13
2023-03-29T03:21:51.002Z,100531.21
2023-03-29T03:24:18.740Z,100534.90
2023-03-29T03:26:47.373Z,100534.44
2023-03-29T03:29:16.233Z,100533.83
2023-03-29T03:32:04.490Z,100533.09
2023-03-29T03:34:38.786Z,100538.91
2023-03-29T03:37:07.101Z,100541.23
2023-03-29T03:39:35.149Z,100547.45
2023-03-29T03:42:07.263Z,100550.09
2023-03-29T03:44:39.375Z,100553.14
2023-03-29T03:47:22.729Z,100552.70
2023-03-29T03:49:51.497Z,100550.77
2023-03-29T03:52:20.278Z,100547.98
2023-03-29T03:54:50.037Z,100551.59
2023-03-29T03:57:37.261Z,100552.16
2023-03-29T04:00:19.029Z,100549.23
2023-03-29T04:02:49.809Z,100547.69
2023-03-29T04:05:17.811Z,100545.27
2023-03-29T04:07:46.230Z,100546.79
2023-03-29T04:10:30.555Z,100545.67
2023-03-29T04:13:12.759Z,100545.36
2023-03-29T04:16:01.690Z,100548.94
2023-03-29T04:18:30.598Z,100547.99
2023-03-29T04:21:00.448Z,100547.73
2023-03-29T04:23:28.941Z,100548.63
2023-03-29T04:25:56.796Z,100553.97
2023-03-29T04:28:41.323Z,100550.13
2023-03-29T04:31:16.872Z,100546.58
2023-03-29T04:34:00.737Z,100552.49
2023-03-29T04:36:29.716Z,100552.33
2023-03-29T04:39:01.169Z,100557.79
2023-03-29T04:41:29.478Z,100559.31
2023-03-29T04:44:00.548Z,100555.19
2023-03-29T04:46:32.428Z,100555.93
2023-03-29T04:49:03.716Z,100554.95
2023-03-29T04:51:40.627Z,100552.95
2023-03-29T04:54:10.081Z,100552.52
2023-03-29T04:56:55.834Z,100550.81
2023-03-29T04:59:39.602Z,100551.54
2023-03-29T05:02:23.267Z,100548.58
2023-03-29T05:04:52.175Z,100547.57
2023-03-29T05:07:20.302Z,100548.91
2023-03-29T05:09:48.511Z,100552.19
2023-03-29T05:12:16.503Z,100554.57
2023-03-29T05:14:52.151Z,100553.49
2023-03-29T05:17:21.636Z,100554.97
2023-03-29T05:19:49.875Z,100553.94
2023-03-29T05:22:17.790Z,100556.20
2023-03-29T05:24:51.961Z,100560.23
2023-03-29T05:27:23.867Z,100561.61
2023-03-29T05:30:01.154Z,100561.09
2023-03-29T05:32:44.035Z,100563.84
2023-03-29T05:35:13.921Z,100560.59
2023-03-29T05:37:41.834Z,100566.95
2023-03-29T05:40:09.952Z,100568.67
2023-03-29T05:42:53.050Z,100569.24
2023-03-29T05:45:22.750Z,100568.23
2023-03-29T05:47:51.259Z,100573.03
2023-03-29T05:50:19.349Z,100571.33
2023-03-29T05:52:47.803Z,100568.72
2023-03-29T05:55:15.588Z,100562.52
2023-03-29T05:57:43.223Z,100566.60
2023-03-29T06:00:26.561Z,100564.11
2023-03-29T06:03:10.135Z,100564.89
2023-03-29T06:05:49.670Z,100559.70
2023-03-29T06:08:17.924Z,100558.38
2023-03-29T06:11:04.867Z,100559.64
2023-03-29T06:13:48.065Z,100560.12
2023-03-29T06:16:16.395Z,100560.23
2023-03-29T06:18:44.870Z,100561.02
2023-03-29T06:21:13.727Z,100560.30
2023-03-29T06:23:41.746Z,100561.66
2023-03-29T06:26:10.566Z,100562.39
2023-03-29T06:28:38.706Z,100562.86
2023-03-29T06:31:06.821Z,100562.39
2023-03-29T06:33:38.071Z,100567.45
2023-03-29T06:36:16.178Z,100564.48
2023-03-29T06:38:45.819Z,100569.11
2023-03-29T06:41:26.390Z,100566.52
2023-03-29T06:44:10.174Z,100560.90
2023-03-29T06:46:45.802Z,100564.58
2023-03-29T06:49:16.265Z,100565.22
2023-03-29T06:51:54.792Z,100570.73
2023-03-29T06:54:22.619Z,100573.48
2023-03-29T06:57:01.432Z,100570.04
2023-03-29T06:59:31.090Z,100572.45
2023-03-29T07:02:09.927Z,100569.30
2023-03-29T07:05:40.706Z,100573.33
2023-03-29T07:08:30.744Z,100571.98
2023-03-29T07:11:01.315Z,100572.72
2023-03-29T07:13:46.127Z,100571.56
2023-03-29T07:16:17.414Z,100573.25
2023-03-29T07:18:51.106Z,100565.30
2023-03-29T07:21:37.967Z,100570.52
2023-03-29T07:24:06.782Z,100573.55
2023-03-29T07:26:36.281Z,100574.10
2023-03-29T07:29:04.167Z,100572.11
2023-03-29T07:31:34.157Z,100571.35
2023-03-29T07:34:22.539Z,100565.54
2023-03-29T07:36:50.323Z,100564.40
2023-03-29T07:39:18.200Z,100560.56
2023-03-29T07:41:58.195Z,100561.17
2023-03-29T07:44:27.027Z,100554.39
2023-03-29T07:46:56.098Z,100557.42
2023-03-29T07:49:23.954Z,100561.32
2023-03-29T07:51:51.891Z,100558.84
2023-03-29T07:54:19.555Z,100562.10
2023-03-29T07:56:58.708Z,100562.48
2023-03-29T07:59:33.015Z,100562.69
2023-03-29T08:02:22.253Z,100568.29
2023-03-29T08:04:56.881Z,100570.73
2023-03-29T08:07:41.239Z,100572.05
2023-03-29T08:10:19.012Z,100570.19
2023-03-29T08:13:10.040Z,100571.11
2023-03-29T08:15:55.440Z,100567.24
2023-03-29T08:18:34.143Z,100563.05
2023-03-29T08:21:03.572Z,100564.64
2023-03-29T08:23:35.437Z,100562.34
2023-03-29T08:26:20.626Z,100554.66
2023-03-29T08:28:49.440Z,100556.31
2023-03-29T08:31:18.688Z,100551.00
2023-03-29T08:33:46.695Z,100550.72
2023-03-29T08:36:27.615Z,100549.96
2023-03-29T08:38:57.308Z,100543.61
2023-03-29T08:41:40.938Z,100534.99
2023-03-29T08:44:24.526Z,100536.72
2023-03-29T08:47:21.110Z,100537.73
2023-03-29T08:49:53.090Z,100532.73
2023-03-29T08:52:25.594Z,100523.16
2023-03-29T08:54:57.035Z,100525.05
2023-03-29T08:57:45.720Z,100526.23
2023-03-29T09:00:20.148Z,100523.15
2023-03-29T09:02:49.221Z,100526.42
2023-03-29T09:05:36.343Z,100515.05
2023-03-29T09:08:17.617Z,100524.55
2023-03-29T09:11:07.703Z,100518.27
2023-03-29T09:13:46.313Z,100518.21
2023-03-29T09:16:26.296Z,100511.77
2023-03-29T09:19:10.147Z,100510.09
2023-03-29T09:21:41.152Z,100512.20
2023-03-29T09:24:15.868Z,100502.34
2023-03-29T09:27:15.166Z,100499.50
2023-03-29T09:30:07.964Z,100496.43
2023-03-29T09:32:57.282Z,100484.86
2023-03-29T09:35:37.216Z,100478.85
2023-03-29T09:38:09.485Z,100468.20
2023-03-29T09:40:57.760Z,100484.41
2023-03-29T09:43:36.140Z,100483.48
2023-03-29T09:46:10.996Z,100461.76
2023-03-29T09:48:40.794Z,100454.30
2023-03-29T09:51:08.993Z,100474.45
2023-03-29T09:53:38.800Z,100467.08
2023-03-29T09:56:32.625Z,100446.15
2023-03-29T09:59:12.490Z,100450.41
2023-03-29T10:01:41.731Z,100454.25
2023-03-29T10:04:10.172Z,100445.45
2023-03-29T10:06:44.322Z,100440.73
2023-03-29T10:09:19.539Z,100452.92
2023-03-29T10:11:49.729Z,100439.04
2023-03-29T10:14:22.923Z,100446.55
2023-03-29T10:16:55.464Z,100448.85
2023-03-29T10:19:34.732Z,100439.08
2023-03-29T10:22:04.395Z,100433.66
2023-03-29T10:24:32.176Z,100434.72
2023-03-29T10:27:02.504Z,100421.38
2023-03-29T10:29:39.147Z,100426.05
2023-03-29T10:32:24.451Z,100421.77
2023-03-29T10:34:53.995Z,100429.02
2023-03-29T10:37:23.712Z,100415.73
2023-03-29T10:39:54.420Z,100414.08
2023-03-29T10:42:24.875Z,100410.77
2023-03-29T10:45:06.279Z,100415.48
2023-03-29T10:47:36.921Z,100406.35
2023-03-29T10:50:10.865Z,100393.30
2023-03-29T10:52:47.264Z,100403.09
2023-03-29T10:55:24.089Z,100388.05
2023-03-29T10:58:03.522Z,100384.64
2023-03-29T11:00:52.267Z,100387.91
2023-03-29T11:03:35.961Z,100378.05
2023-03-29T11:06:16.654Z,100365.89
2023-03-29T11:08:50.333Z,100365.70
2023-03-29T11:11:24.451Z,100365.06
2023-03-29T11:13:57.513Z,100361.20
2023-03-29T11:16:26.457Z,100355.09
2023-03-29T11:18:54.282Z,100347.27
2023-03-29T11:21:38.021Z,100353.24
2023-03-29T11:24:21.948Z,100327.11
2023-03-29T11:26:55.513Z,100320.23
2023-03-29T11:29:39.378Z,100321.23
2023-03-29T11:32:23.339Z,100315.92
2023-03-29T11:34:52.367Z,100313.47
2023-03-29T11:37:28.701Z,100311.93
2023-03-29T11:40:00.337Z,100298.40
2023-03-29T11:42:31.982Z,100301.35
2023-03-29T11:45:02.222Z,100289.86
2023-03-29T11:47:37.957Z,100296.71
2023-03-29T11:50:47.378Z,100290.06
2023-03-29T11:53:21.520Z,100289.44
2023-03-29T11:55:51.355Z,100278.59
2023-03-29T11:58:23.102Z,100261.16
2023-03-29T12:00:55.617Z,100271.48
2023-03-29T12:03:23.317Z,100253.89
2023-03-29T12:05:53.599Z,100275.96
2023-03-29T12:08:27.970Z,100280.94
2023-03-29T12:10:58.745Z,100275.24
2023-03-29T12:13:46.748Z,100278.59
2023-03-29T12:16:22.395Z,100279.95
2023-03-29T12:18:52.708Z,100273.94
2023-03-29T12:21:26.407Z,100274.48
2023-03-29T12:23:55.382Z,100269.09
2023-03-29T12:26:27.150Z,100253.99
2023-03-29T12:29:10.923Z,100261.91
2023-03-29T12:31:44.751Z,100258.35
2023-03-29T12:34:12.563Z,100249.84
2023-03-29T12:37:01.015Z,100258.55
2023-03-29T12:39:44.899Z,100245.80
2023-03-29T12:42:28.651Z,100246.68
2023-03-29T12:45:02.255Z,100243.34
2023-03-29T12:47:40.974Z,100233.63
2023-03-29T12:50:22.143Z,100230.98
2023-03-29T12:52:50.056Z,100226.10
2023-03-29T12:55:29.589Z,100237.35
2023-03-29T12:58:02.402Z,100234.45
2023-03-29T13:00:42.819Z,100215.36
2023-03-29T13:03:27.090Z,100204.13
2023-03-29T13:06:02.600Z,100183.81
2023-03-29T13:08:48.434Z,100186.50
2023-03-29T13:11:32.114Z,100192.60
2023-03-29T13:14:01.567Z,100183.04
2023-03-29T13:16:31.263Z,100172.23
2023-03-29T13:19:02.200Z,100189.64
2023-03-29T13:21:38.269Z,100189.86
2023-03-29T13:24:22.219Z,100183.49
2023-03-29T13:26:57.521Z,100189.60
2023-03-29T13:29:43.245Z,100193.69
2023-03-29T13:32:27.401Z,100191.45
2023-03-29T13:34:55.159Z,100194.45
2023-03-29T13:37:28.440Z,100182.86
2023-03-29T13:39:56.306Z,100171.66
2023-03-29T13:42:25.607Z,100174.05
2023-03-29T13:45:05.368Z,100171.89
2023-03-29T13:47:33.094Z,100159.46
2023-03-29T13:50:03.975Z,100164.85
2023-03-29T13:52:36.647Z,100159.53
2023-03-29T13:55:08.512Z,100149.33
2023-03-29T13:57:41.390Z,100160.31
2023-03-29T14:00:17.845Z,100162.87
2023-03-29T14:02:51.615Z,100163.95
2023-03-29T14:05:23.623Z,100164.80
2023-03-29T14:07:53.087Z,100161.14
2023-03-29T14:10:41.274Z,100158.90
2023-03-29T14:13:16.842Z,100159.66
2023-03-29T14:15:48.498Z,100154.08
2023-03-29T14:18:18.629Z,100160.13
2023-03-29T14:20:49.064Z,100145.57
2023-03-29T14:23:19.872Z,100143.52
2023-03-29T14:25:47.522Z,100120.14
2023-03-29T14:28:22.730Z,100085.39
2023-03-29T14:30:52.493Z,100079.02
2023-03-29T14:33:27.558Z,100084.56
2023-03-29T14:35:57.080Z,100086.97
2023-03-29T14:38:26.111Z,100087.55
2023-03-29T14:40:58.270Z,100068.76
2023-03-29T14:43:30.888Z,100069.34
2023-03-29T14:46:01.369Z,100063.95
2023-03-29T14:48:32.957Z,100057.97
2023-03-29T14:51:01.369Z,100059.75
2023-03-29T14:53:31.855Z,100058.20
2023-03-29T14:56:00.240Z,100046.94
2023-03-29T14:58:28.398Z,100053.60
2023-03-29T15:00:56.383Z,100059.88
2023-03-29T15:03:26.979Z,100047.44
2023-03-29T15:05:58.456Z,100058.27
2023-03-29T15:08:32.170Z,100035.67
2023-03-29T15:11:00.262Z,100032.84
2023-03-29T15:13:28.322Z,100034.39
2023-03-29T15:15:58.769Z,100038.48
2023-03-29T15:18:29.326Z,100035.00
2023-03-29T15:20:57.123Z,100035.48
2023-03-29T15:23:25.518Z,100038.86
2023-03-29T15:26:07.337Z,100032.77
2023-03-29T15:28:36.015Z,100032.29
2023-03-29T15:31:10.030Z,100037.56
2023-03-29T15:33:39.312Z,100036.70
2023-03-29T15:36:08.624Z,100037.69
2023-03-29T15:38:43.796Z,100034.29
2023-03-29T15:41:14.049Z,100035.70
2023-03-29T15:43:42.331Z,100031.09
2023-03-29T15:46:16.542Z,100028.64
2023-03-29T15:48:44.316Z,100026.44
2023-03-29T15:51:12.491Z,100026.95
2023-03-29T15:53:40.744Z,100026.17
2023-03-29T15:56:11.139Z,100023.15
2023-03-29T15:58:39.114Z,100024.16
2023-03-29T16:01:13.279Z,100023.13
2023-03-29T16:03:41.706Z,100023.16
2023-03-29T16:06:12.831Z,100026.48
2023-03-29T16:08:41.765Z,100025.15
2023-03-29T16:11:09.797Z,100024.23
2023-03-29T16:13:37.493Z,100027.39
2023-03-29T16:16:05.973Z,100031.44
2023-03-29T16:18:35.693Z,100028.00
2023-03-29T16:21:03.867Z,100032.33
2023-03-29T16:23:31.619Z,100025.72
2023-03-29T16:25:59.383Z,100027.02
2023-03-29T16:28:28.148Z,100026.11
2023-03-29T16:30:56.128Z,100032.80
2023-03-29T16:33:23.861Z,100026.76
2023-03-29T16:35:51.618Z,100029.64
2023-03-29T16:38:19.835Z,100024.84
2023-03-29T16:40:47.701Z,100021.94
2023-03-29T16:43:16.417Z,100018.40
2023-03-29T16:45:44.678Z,100019.25
2023-03-29T16:48:17.270Z,100018.83
2023-03-29T16:50:48.582Z,100014.21
2023-03-29T16:53:18.397Z,100014.71
2023-03-29T16:55:46.651Z,100018.98
2023-03-29T16:58:15.587Z,100017.47
2023-03-29T17:00:47.238Z,100017.63
2023-03-29T17:03:16.053Z,100025.93
2023-03-29T17:05:48.253Z,100027.89
2023-03-29T17:08:16.750Z,100027.73
2023-03-29T17:10:44.807Z,100023.77
2023-03-29T17:13:13.001Z,100023.34
2023-03-29T17:15:41.134Z,100025.59
2023-03-29T17:18:09.022Z,100029.13
2023-03-29T17:20:38.533Z,100024.08
2023-03-29T17:23:06.335Z,100027.35
2023-03-29T17:25:34.195Z,100032.00
2023-03-29T17:28:02.763Z,100035.81
2023-03-29T17:30:30.443Z,100038.84
2023-03-29T17:32:58.219Z,100039.23
2023-03-29T17:35:26.572Z,100041.20
2023-03-29T17:37:54.758Z,100040.79
2023-03-29T17:40:22.680Z,100042.95
2023-03-29T17:42:52.462Z,100046.63
2023-03-29T17:45:20.264Z,100046.17
2023-03-29T17:47:48.126Z,100044.61
2023-03-29T17:50:16.111Z,100046.39
2023-03-29T17:52:44.059Z,100047.26
2023-03-29T17:55:13.569Z,100047.31
2023-03-29T17:57:42.007Z,100053.83
2023-03-29T18:00:13.913Z,100052.10
2023-03-29T18:02:41.811Z,100053.36
2023-03-29T18:05:10.119Z,100051.27
2023-03-29T18:07:37.940Z,100050.85
2023-03-29T18:10:06.501Z,100052.78
2023-03-29T18:12:34.361Z,100057.76
2023-03-29T18:15:02.522Z,100060.94
2023-03-29T18:17:30.383Z,100058.23
2023-03-29T18:19:58.343Z,100060.15
2023-03-29T18:22:26.098Z,100064.56
2023-03-29T18:24:54.878Z,100064.14
2023-03-29T18:27:22.765Z,100065.66
2023-03-29T18:29:50.512Z,100067.81
2023-03-29T18:32:18.296Z,100066.38
2023-03-29T18:34:46.424Z,100064.04
2023-03-29T18:37:15.102Z,100066.92
2023-03-29T18:39:45.580Z,100070.49
2023-03-29T18:42:13.982Z,100072.96
2023-03-29T18:44:42.250Z,100068.55
2023-03-29T18:47:10.133Z,100067.34
2023-03-29T18:49:38.208Z,100067.50
2023-03-29T18:52:06.113Z,100069.62
2023-03-29T18:54:34.078Z,100064.70
2023-03-29T18:57:01.862Z,100066.45
2023-03-29T18:59:29.727Z,100068.77
2023-03-29T19:01:57.564Z,100063.23
2023-03-29T19:04:27.117Z,100061.92
2023-03-29T19:06:56.067Z,100059.91
2023-03-29T19:09:23.836Z,100058.75
2023-03-29T19:11:51.481Z,100060.84
2023-03-29T19:14:23.580Z,100061.77
2023-03-29T19:16:52.046Z,100057.63
2023-03-29T19:19:21.640Z,100058.01
2023-03-29T19:21:49.512Z,100055.56
2023-03-29T19:24:17.476Z,100051.66
2023-03-29T19:26:47.789Z,100049.06
2023-03-29T19:29:15.648Z,100048.12
2023-03-29T19:31:43.485Z,100044.54
2023-03-29T19:34:11.551Z,100042.17
2023-03-29T19:36:39.461Z,100045.02
2023-03-29T19:39:07.193Z,100043.66
2023-03-29T19:41:34.866Z,100042.27
2023-03-29T19:44:02.845Z,100040.08
2023-03-29T19:46:30.877Z,100038.67
2023-03-29T19:49:00.332Z,100041.40
2023-03-29T19:51:28.190Z,100040.45
2023-03-29T19:53:56.292Z,100036.67
2023-03-29T19:56:25.587Z,100040.46
2023-03-29T19:58:53.562Z,100039.80
2023-03-29T20:01:21.734Z,100041.11
2023-03-29T20:03:50.558Z,100039.44
2023-03-29T20:06:19.103Z,100038.83
2023-03-29T20:08:47.040Z,100038.98
2023-03-29T20:11:15.128Z,100036.08
2023-03-29T20:13:44.015Z,100032.98
2023-03-29T20:16:13.670Z,100030.33
2023-03-29T20:18:44.579Z,100029.70
2023-03-29T20:21:13.920Z,100029.93
2023-03-29T20:23:41.928Z,100024.14
2023-03-29T20:26:10.434Z,100030.46
2023-03-29T20:28:38.206Z,100024.16
2023-03-29T20:31:06.986Z,100025.31
2023-03-29T20:33:34.769Z,100024.06
2023-03-29T20:36:02.800Z,100022.23
2023-03-29T20:38:30.629Z,100017.69
2023-03-29T20:40:58.953Z,100015.63
2023-03-29T20:43:26.775Z,100016.16
2023-03-29T20:45:55.389Z,100025.34
2023-03-29T20:48:24.114Z,100016.52
2023-03-29T20:50:52.075Z,100015.39
2023-03-29T20:53:20.667Z,100012.01
2023-03-29T20:55:48.707Z,100011.88
2023-03-29T20:58:16.436Z,100006.37
2023-03-29T21:00:44.172Z,100003.75
2023-03-29T21:03:12.240Z,100003.56
2023-03-29T21:05:40.068Z,100004.45
2023-03-29T21:08:08.420Z,100003.92
2023-03-29T21:10:36.468Z,100000.75
2023-03-29T21:13:04.250Z,99995.98
2023-03-29T21:15:33.548Z,99994.10
2023-03-29T21:18:01.834Z,99999.40
2023-03-29T21:20:29.768Z,99994.23
2023-03-29T21:22:57.514Z,99991.41
2023-03-29T21:25:25.511Z,99991.94
2023-03-29T21:27:53.234Z,99993.59
2023-03-29T21:30:21.071Z,99990.70
2023-03-29T21:32:48.836Z,99989.77
2023-03-29T21:35:17.188Z,99984.55
2023-03-29T21:37:44.858Z,99980.27
2023-03-29T21:40:13.121Z,99980.27
2023-03-29T21:42:40.890Z,99983.11
2023-03-29T21:45:09.194Z,99977.52
2023-03-29T21:47:36.941Z,99972.73
2023-03-29T21:50:05.306Z,99974.88
2023-03-29T21:52:33.016Z,99976.90
2023-03-29T21:55:00.763Z,99972.67
2023-03-29T21:57:28.422Z,99972.67
2023-03-29T21:59:56.681Z,99980.55
2023-03-29T22:02:24.505Z,99980.81
2023-03-29T22:04:52.549Z,99980.94
2023-03-29T22:07:22.555Z,99975.79
2023-03-29T22:09:50.354Z,99978.31
2023-03-29T22:12:19.285Z,99971.55
2023-03-29T22:14:47.274Z,99972.41
2023-03-29T22:17:15.990Z,99975.44
2023-03-29T22:19:43.691Z,99975.92
2023-03-29T22:22:14.147Z,99972.83
2023-03-29T22:24:42.272Z,99968.27
2023-03-29T22:27:11.042Z,99966.05
2023-03-29T22:29:38.848Z,99967.04
2023-03-29T22:32:06.808Z,99964.27
2023-03-29T22:34:34.811Z,99962.42
2023-03-29T22:37:02.556Z,99961.50
2023-03-29T22:39:30.250Z,99960.20
2023-03-29T22:41:58.006Z,99961.52
2023-03-29T22:44:25.995Z,99956.42
2023-03-29T22:46:53.848Z,99954.71
2023-03-29T22:49:21.608Z,99954.77
2023-03-29T22:51:49.400Z,99950.49
2023-03-29T22:54:17.246Z,99948.09
2023-03-29T22:56:45.028Z,99946.88
2023-03-29T22:59:12.762Z,99950.83
2023-03-29T23:01:40.436Z,99950.67
2023-03-29T23:04:08.294Z,99946.84
2023-03-29T23:06:36.047Z,99948.61
2023-03-29T23:09:03.744Z,99942.61
2023-03-29T23:11:31.605Z,99941.11
2023-03-29T23:13:59.292Z,99936.70
2023-03-29T23:16:27.035Z,99935.53
2023-03-29T23:18:54.741Z,99942.52
2023-03-29T23:21:22.872Z,99942.56
2023-03-29T23:23:50.553Z,99946.90
2023-03-29T23:26:18.509Z,99944.77
2023-03-29T23:28:46.460Z,99940.77
2023-03-29T23:31:18.333Z,99938.73
2023-03-29T23:33:46.185Z,99940.31
2023-03-29T23:36:15.071Z,99931.71
2023-03-29T23:38:44.276Z,99931.39
2023-03-29T23:41:12.752Z,99926.63
2023-03-29T23:43:41.560Z,99929.15
2023-03-29T23:46:10.694Z,99934.09
2023-03-29T23:48:39.169Z,99938.45
2023-03-29T23:51:08.066Z,99936.32
2023-03-29T23:53:35.779Z,99932.40
2023-03-29T23:56:05.015Z,99929.24
2023-03-29T23:58:34.548Z,99923.52
